createdAt,value
2018-03-28T00:01:00.948Z,99162.03
2018-03-28T00:03:28.328Z,99164.69
2018-03-28T00:05:55.709Z,99164.19
2018-03-28T00:08:23.092Z,99161.70
2018-03-28T00:10:50.485Z,99155.28
2018-03-28T00:13:17.856Z,99161.63
2018-03-28T00:15:45.244Z,99162.45
2018-03-28T00:18:12.620Z,99171.20
2018-03-28T00:20:40.010Z,99171.33
2018-03-28T00:23:07.392Z,99166.23
2018-03-28T00:25:34.772Z,99174.61
2018-03-28T00:28:02.168Z,99169.22
2018-03-28T00:30:29.552Z,99166.36
2018-03-28T00:32:56.936Z,99163.67
2018-03-28T00:35:24.320Z,99157.33
2018-03-28T00:37:51.696Z,99158.52
2018-03-28T00:40:19.088Z,99144.84
2018-03-28T00:42:46.474Z,99143.75
2018-03-28T00:45:14.713Z,99146.79
2018-03-28T00:47:42.102Z,99132.05
2018-03-28T00:50:09.778Z,99134.25
2018-03-28T00:52:37.165Z,99129.69
2018-03-28T00:55:04.541Z,99130.14
2018-03-28T00:57:31.928Z,99128.24
2018-03-28T00:59:59.316Z,99130.06
2018-03-28T01:02:26.710Z,99130.64
2018-03-28T01:04:54.093Z,99132.88
2018-03-28T01:07:21.468Z,99127.31
2018-03-28T01:09:48.852Z,99130.55
2018-03-28T01:12:16.234Z,99123.50
2018-03-28T01:14:43.618Z,99124.28
2018-03-28T01:17:10.996Z,99128.77
2018-03-28T01:19:38.383Z,99130.31
2018-03-28T01:22:05.764Z,99123.87
2018-03-28T01:24:33.173Z,99118.67
2018-03-28T01:27:00.557Z,99121.76
2018-03-28T01:29:27.949Z,99114.73
2018-03-28T01:31:55.333Z,99119.93
2018-03-28T01:34:22.716Z,99118.77
2018-03-28T01:36:50.100Z,99122.95
2018-03-28T01:39:17.477Z,99118.92
2018-03-28T01:41:44.864Z,99123.45
2018-03-28T01:44:12.260Z,99127.02
2018-03-28T01:46:39.640Z,99123.66
2018-03-28T01:49:07.016Z,99132.70
2018-03-28T01:51:34.407Z,99130.34
2018-03-28T01:54:01.780Z,99134.11
2018-03-28T01:56:29.164Z,99132.16
2018-03-28T01:58:56.549Z,99120.45
2018-03-28T02:01:23.940Z,99125.97
2018-03-28T02:03:51.318Z,99129.55
2018-03-28T02:06:18.715Z,99138.09
2018-03-28T02:08:46.088Z,99126.43
2018-03-28T02:11:13.505Z,99129.20
2018-03-28T02:13:40.888Z,99133.08
2018-03-28T02:16:08.276Z,99130.66
2018-03-28T02:18:35.663Z,99131.36
2018-03-28T02:21:03.039Z,99133.15
2018-03-28T02:23:30.433Z,99132.31
2018-03-28T02:25:57.821Z,99140.20
2018-03-28T02:28:25.209Z,99138.95
2018-03-28T02:30:52.584Z,99131.22
2018-03-28T02:33:19.996Z,99134.27
2018-03-28T02:35:47.380Z,99131.68
2018-03-28T02:38:14.771Z,99136.37
2018-03-28T02:40:42.145Z,99137.41
2018-03-28T02:43:09.536Z,99133.27
2018-03-28T02:45:36.932Z,99134.97
2018-03-28T02:48:04.317Z,99129.28
2018-03-28T02:50:31.704Z,99132.20
2018-03-28T02:52:59.106Z,99124.61
2018-03-28T02:55:26.480Z,99134.57
2018-03-28T02:57:53.894Z,99133.28
2018-03-28T03:00:21.276Z,99129.80
2018-03-28T03:02:48.676Z,99137.97
2018-03-28T03:05:16.064Z,99136.57
2018-03-28T03:07:43.465Z,99139.59
2018-03-28T03:10:10.849Z,99139.59
2018-03-28T03:12:38.232Z,99133.99
2018-03-28T03:15:05.621Z,99147.02
2018-03-28T03:17:33.013Z,99140.59
2018-03-28T03:20:00.404Z,99132.16
2018-03-28T03:22:27.804Z,99139.67
2018-03-28T03:24:55.197Z,99137.18
2018-03-28T03:27:22.575Z,99131.21
2018-03-28T03:29:49.968Z,99143.80
2018-03-28T03:32:17.362Z,99141.00
2018-03-28T03:34:44.750Z,99138.09
2018-03-28T03:37:12.134Z,99140.00
2018-03-28T03:39:39.529Z,99133.82
2018-03-28T03:42:06.907Z,99136.60
2018-03-28T03:44:34.292Z,99139.50
2018-03-28T03:47:01.679Z,99134.31
2018-03-28T03:49:29.064Z,99141.05
2018-03-28T03:51:56.456Z,99134.19
2018-03-28T03:54:23.856Z,99134.91
2018-03-28T03:56:51.245Z,99135.30
2018-03-28T03:59:18.633Z,99129.75
2018-03-28T04:01:46.020Z,99125.52
2018-03-28T04:04:13.407Z,99136.94
2018-03-28T04:06:40.791Z,99132.25
2018-03-28T04:09:08.192Z,99133.37
2018-03-28T04:11:35.592Z,99128.80
2018-03-28T04:14:02.988Z,99133.03
2018-03-28T04:16:30.384Z,99130.11
2018-03-28T04:18:57.768Z,99134.51
2018-03-28T04:21:25.156Z,99132.55
2018-03-28T04:23:52.545Z,99132.35
2018-03-28T04:26:19.940Z,99138.33
2018-03-28T04:28:47.328Z,99136.03
2018-03-28T04:31:14.712Z,99137.58
2018-03-28T04:33:42.110Z,99133.13
2018-03-28T04:36:09.488Z,99134.98
2018-03-28T04:38:36.888Z,99134.97
2018-03-28T04:41:04.269Z,99140.88
2018-03-28T04:43:31.664Z,99143.81
2018-03-28T04:45:59.044Z,99151.73
2018-03-28T04:48:26.440Z,99149.45
2018-03-28T04:50:53.820Z,99141.31
2018-03-28T04:53:21.216Z,99151.00
2018-03-28T04:55:48.640Z,99138.70
2018-03-28T04:58:15.998Z,99147.59
2018-03-28T05:00:43.396Z,99147.72
2018-03-28T05:03:10.776Z,99139.94
2018-03-28T05:05:38.172Z,99145.21
2018-03-28T05:08:05.544Z,99151.49
2018-03-28T05:10:32.938Z,99152.86
2018-03-28T05:13:00.321Z,99144.80
2018-03-28T05:15:27.712Z,99149.08
2018-03-28T05:17:55.110Z,99157.89
2018-03-28T05:20:22.495Z,99156.34
2018-03-28T05:22:49.881Z,99154.73
2018-03-28T05:25:17.279Z,99151.44
2018-03-28T05:27:44.657Z,99164.38
2018-03-28T05:30:12.048Z,99161.34
2018-03-28T05:32:39.428Z,99166.58
2018-03-28T05:35:06.821Z,99166.12
2018-03-28T05:37:34.539Z,99162.42
2018-03-28T05:40:01.935Z,99165.16
2018-03-28T05:42:29.316Z,99167.12
2018-03-28T05:44:56.704Z,99164.63
2018-03-28T05:47:24.093Z,99162.97
2018-03-28T05:49:51.509Z,99169.57
2018-03-28T05:52:18.888Z,99167.91
2018-03-28T05:54:46.275Z,99168.53
2018-03-28T05:57:13.665Z,99168.61
2018-03-28T05:59:41.048Z,99173.05
2018-03-28T06:02:08.436Z,99177.08
2018-03-28T06:04:35.826Z,99166.78
2018-03-28T06:07:03.217Z,99173.67
2018-03-28T06:09:30.605Z,99173.67
2018-03-28T06:11:57.992Z,99170.10
2018-03-28T06:14:25.378Z,99174.13
2018-03-28T06:16:52.765Z,99178.06
2018-03-28T06:19:20.152Z,99173.34
2018-03-28T06:21:47.540Z,99174.72
2018-03-28T06:24:14.921Z,99172.06
2018-03-28T06:26:42.313Z,99179.28
2018-03-28T06:29:09.698Z,99178.77
2018-03-28T06:31:37.110Z,99182.46
2018-03-28T06:34:04.478Z,99178.15
2018-03-28T06:36:31.868Z,99175.63
2018-03-28T06:38:59.256Z,99173.47
2018-03-28T06:41:26.676Z,99167.23
2018-03-28T06:43:54.068Z,99164.42
2018-03-28T06:46:21.540Z,99163.55
2018-03-28T06:48:48.928Z,99162.97
2018-03-28T06:51:16.315Z,99155.78
2018-03-28T06:53:43.704Z,99154.08
2018-03-28T06:56:11.093Z,99151.22
2018-03-28T06:58:38.528Z,99144.05
2018-03-28T07:01:05.908Z,99139.27
2018-03-28T07:03:33.304Z,99139.41
2018-03-28T07:06:00.694Z,99142.72
2018-03-28T07:08:28.080Z,99151.09
2018-03-28T07:10:55.471Z,99153.70
2018-03-28T07:13:22.899Z,99143.34
2018-03-28T07:15:50.282Z,99136.90
2018-03-28T07:18:17.662Z,99139.05
2018-03-28T07:20:45.157Z,99149.31
2018-03-28T07:23:12.688Z,99151.27
2018-03-28T07:25:41.158Z,99160.76
2018-03-28T07:28:08.524Z,99162.52
2018-03-28T07:30:35.927Z,99170.25
2018-03-28T07:33:03.968Z,99167.11
2018-03-28T07:35:31.596Z,99162.36
2018-03-28T07:37:58.972Z,99161.47
2018-03-28T07:40:26.397Z,99158.42
2018-03-28T07:42:53.786Z,99151.53
2018-03-28T07:45:21.184Z,99155.77
2018-03-28T07:47:48.897Z,99152.98
2018-03-28T07:50:16.364Z,99154.88
2018-03-28T07:52:43.764Z,99151.47
2018-03-28T07:55:11.289Z,99146.33
2018-03-28T07:57:38.682Z,99140.56
2018-03-28T08:00:06.111Z,99138.30
2018-03-28T08:02:33.504Z,99134.08
2018-03-28T08:05:00.892Z,99134.94
2018-03-28T08:07:28.268Z,99133.27
2018-03-28T08:09:56.549Z,99128.65
2018-03-28T08:12:23.953Z,99133.73
2018-03-28T08:14:51.348Z,99125.33
2018-03-28T08:17:18.764Z,99128.92
2018-03-28T08:19:46.188Z,99128.41
2018-03-28T08:22:13.621Z,99128.59
2018-03-28T08:24:41.039Z,99117.77
2018-03-28T08:27:08.420Z,99116.32
2018-03-28T08:29:35.809Z,99114.88
2018-03-28T08:32:03.203Z,99108.97
2018-03-28T08:34:30.588Z,99108.59
2018-03-28T08:36:57.999Z,99114.70
2018-03-28T08:39:25.386Z,99108.47
2018-03-28T08:41:52.755Z,99108.58
2018-03-28T08:44:20.157Z,99101.58
2018-03-28T08:46:47.564Z,99104.78
2018-03-28T08:49:14.968Z,99103.45
2018-03-28T08:51:42.350Z,99101.94
2018-03-28T08:54:09.846Z,99104.58
2018-03-28T08:56:37.243Z,99101.19
2018-03-28T08:59:04.616Z,99098.47
2018-03-28T09:01:32.002Z,99107.19
2018-03-28T09:03:59.435Z,99099.97
2018-03-28T09:06:26.832Z,99096.41
2018-03-28T09:08:54.230Z,99095.83
2018-03-28T09:11:21.635Z,99095.34
2018-03-28T09:13:49.045Z,99098.96
2018-03-28T09:16:16.424Z,99096.28
2018-03-28T09:18:43.840Z,99092.80
2018-03-28T09:21:11.262Z,99092.02
2018-03-28T09:23:38.657Z,99089.82
2018-03-28T09:26:06.092Z,99087.19
2018-03-28T09:28:33.444Z,99081.02
2018-03-28T09:31:00.850Z,99078.80
2018-03-28T09:33:28.272Z,99071.86
2018-03-28T09:35:55.675Z,99072.66
2018-03-28T09:38:23.064Z,99074.02
2018-03-28T09:40:50.460Z,99064.61
2018-03-28T09:43:17.864Z,99065.79
2018-03-28T09:45:45.287Z,99060.69
2018-03-28T09:48:12.676Z,99061.54
2018-03-28T09:50:40.082Z,99076.97
2018-03-28T09:53:07.483Z,99065.78
2018-03-28T09:55:34.871Z,99058.78
2018-03-28T09:58:02.272Z,99054.94
2018-03-28T10:00:29.692Z,99062.21
2018-03-28T10:03:02.587Z,99064.39
2018-03-28T10:05:35.498Z,99061.03
2018-03-28T10:08:02.897Z,99054.53
2018-03-28T10:10:30.306Z,99050.19
2018-03-28T10:12:57.725Z,99042.87
2018-03-28T10:15:25.105Z,99050.69
2018-03-28T10:17:52.548Z,99048.32
2018-03-28T10:20:19.945Z,99051.64
2018-03-28T10:22:47.400Z,99049.38
2018-03-28T10:25:14.785Z,99044.63
2018-03-28T10:27:42.184Z,99045.83
2018-03-28T10:30:09.588Z,99039.11
2018-03-28T10:32:36.980Z,99035.54
2018-03-28T10:35:04.378Z,99029.16
2018-03-28T10:37:31.763Z,99025.94
2018-03-28T10:39:59.169Z,99022.25
2018-03-28T10:42:26.548Z,99016.19
2018-03-28T10:44:53.946Z,99014.79
2018-03-28T10:47:21.325Z,99014.86
2018-03-28T10:49:48.728Z,99006.30
2018-03-28T10:52:16.123Z,99001.85
2018-03-28T10:54:44.576Z,99002.17
2018-03-28T10:57:11.964Z,98989.04
2018-03-28T10:59:39.372Z,98990.67
2018-03-28T11:02:06.753Z,98979.15
2018-03-28T11:04:34.165Z,98970.88
2018-03-28T11:07:01.549Z,98972.98
2018-03-28T11:09:28.943Z,98968.48
2018-03-28T11:11:56.383Z,98958.17
2018-03-28T11:14:23.810Z,98955.09
2018-03-28T11:16:51.210Z,98949.84
2018-03-28T11:19:18.589Z,98943.81
2018-03-28T11:21:45.985Z,98939.13
2018-03-28T11:24:13.416Z,98932.58
2018-03-28T11:26:40.827Z,98921.45
2018-03-28T11:29:08.208Z,98917.11
2018-03-28T11:31:35.684Z,98910.22
2018-03-28T11:34:03.079Z,98907.77
2018-03-28T11:36:30.479Z,98903.14
2018-03-28T11:38:57.892Z,98894.17
2018-03-28T11:41:25.296Z,98889.25
2018-03-28T11:43:52.700Z,98879.26
2018-03-28T11:46:20.158Z,98874.69
2018-03-28T11:48:47.548Z,98868.33
2018-03-28T11:51:14.952Z,98871.54
2018-03-28T11:53:42.432Z,98869.63
2018-03-28T11:56:09.877Z,98858.97
2018-03-28T11:58:37.323Z,98855.72
2018-03-28T12:01:04.711Z,98851.86
2018-03-28T12:03:32.104Z,98840.77
2018-03-28T12:05:59.565Z,98837.89
2018-03-28T12:08:27.013Z,98834.96
2018-03-28T12:10:54.423Z,98832.11
2018-03-28T12:13:21.820Z,98822.05
2018-03-28T12:15:49.221Z,98817.83
2018-03-28T12:18:16.642Z,98807.31
2018-03-28T12:20:44.035Z,98800.31
2018-03-28T12:23:11.405Z,98801.94
2018-03-28T12:25:38.792Z,98803.59
2018-03-28T12:28:06.232Z,98796.18
2018-03-28T12:30:33.618Z,98788.41
2018-03-28T12:33:01.029Z,98778.62
2018-03-28T12:35:28.438Z,98777.24
2018-03-28T12:37:55.829Z,98782.39
2018-03-28T12:40:23.224Z,98769.20
2018-03-28T12:42:50.593Z,98761.20
2018-03-28T12:45:18.020Z,98755.00
2018-03-28T12:47:45.430Z,98755.52
2018-03-28T12:50:12.872Z,98749.86
2018-03-28T12:52:40.326Z,98747.33
2018-03-28T12:55:07.756Z,98743.64
2018-03-28T12:57:35.174Z,98736.08
2018-03-28T13:00:02.576Z,98732.89
2018-03-28T13:02:30.021Z,98731.95
2018-03-28T13:04:57.399Z,98728.22
2018-03-28T13:07:24.852Z,98729.56
2018-03-28T13:09:52.229Z,98726.20
2018-03-28T13:12:19.623Z,98726.60
2018-03-28T13:14:47.012Z,98730.88
2018-03-28T13:17:14.468Z,98716.59
2018-03-28T13:19:41.932Z,98716.59
2018-03-28T13:22:09.316Z,98710.52
2018-03-28T13:24:36.736Z,98702.13
2018-03-28T13:27:04.153Z,98703.36
2018-03-28T13:29:31.529Z,98690.37
2018-03-28T13:31:58.924Z,98683.19
2018-03-28T13:34:26.388Z,98674.59
2018-03-28T13:36:53.816Z,98663.41
2018-03-28T13:39:21.200Z,98654.31
2018-03-28T13:41:48.629Z,98647.79
2018-03-28T13:44:15.993Z,98644.19
2018-03-28T13:46:43.500Z,98630.42
2018-03-28T13:49:10.900Z,98617.79
2018-03-28T13:51:38.286Z,98608.55
2018-03-28T13:54:05.684Z,98597.32
2018-03-28T13:56:34.289Z,98588.75
2018-03-28T13:59:01.671Z,98581.48
2018-03-28T14:01:29.767Z,98570.26
2018-03-28T14:03:57.144Z,98569.39
2018-03-28T14:06:24.551Z,98573.11
2018-03-28T14:08:51.944Z,98576.61
2018-03-28T14:11:19.376Z,98565.52
2018-03-28T14:13:46.796Z,98559.06
2018-03-28T14:16:14.188Z,98554.75
2018-03-28T14:18:41.616Z,98558.30
2018-03-28T14:21:09.019Z,98552.84
2018-03-28T14:23:37.316Z,98542.00
2018-03-28T14:26:04.712Z,98546.86
2018-03-28T14:28:32.127Z,98537.60
2018-03-28T14:30:59.504Z,98531.81
2018-03-28T14:33:27.000Z,98529.73
2018-03-28T14:35:54.424Z,98518.90
2018-03-28T14:38:21.830Z,98507.86
2018-03-28T14:40:49.260Z,98498.52
2018-03-28T14:43:16.642Z,98502.05
2018-03-28T14:45:44.035Z,98488.22
2018-03-28T14:48:18.799Z,98477.59
2018-03-28T14:50:46.187Z,98470.09
2018-03-28T14:53:13.584Z,98456.41
2018-03-28T14:55:41.060Z,98457.96
2018-03-28T14:58:08.451Z,98452.22
2018-03-28T15:00:35.985Z,98436.34
2018-03-28T15:03:03.464Z,98430.40
2018-03-28T15:05:30.849Z,98429.54
2018-03-28T15:07:58.281Z,98429.07
2018-03-28T15:10:25.707Z,98415.09
2018-03-28T15:12:53.088Z,98413.53
2018-03-28T15:15:20.506Z,98401.84
2018-03-28T15:17:47.882Z,98393.42
2018-03-28T15:20:15.313Z,98383.80
2018-03-28T15:22:42.729Z,98381.97
2018-03-28T15:25:10.144Z,98379.36
2018-03-28T15:27:37.536Z,98369.74
2018-03-28T15:30:04.934Z,98365.01
2018-03-28T15:32:32.343Z,98358.88
2018-03-28T15:34:59.715Z,98348.02
2018-03-28T15:37:31.328Z,98346.63
2018-03-28T15:39:58.757Z,98338.28
2018-03-28T15:42:26.135Z,98312.55
2018-03-28T15:44:53.572Z,98289.84
2018-03-28T15:47:20.960Z,98291.89
2018-03-28T15:49:48.345Z,98306.48
2018-03-28T15:52:15.762Z,98297.55
2018-03-28T15:54:43.145Z,98304.13
2018-03-28T15:57:10.521Z,98305.32
2018-03-28T15:59:38.048Z,98306.58
2018-03-28T16:02:05.509Z,98302.08
2018-03-28T16:04:32.928Z,98305.32
2018-03-28T16:07:00.345Z,98297.03
2018-03-28T16:09:27.736Z,98290.89
2018-03-28T16:11:55.155Z,98301.53
2018-03-28T16:14:22.572Z,98289.26
2018-03-28T16:16:50.008Z,98293.67
2018-03-28T16:19:17.409Z,98290.47
2018-03-28T16:21:44.797Z,98281.34
2018-03-28T16:24:12.196Z,98263.61
2018-03-28T16:26:39.601Z,98263.81
2018-03-28T16:29:07.005Z,98255.02
2018-03-28T16:31:34.419Z,98254.91
2018-03-28T16:34:01.802Z,98258.73
2018-03-28T16:36:29.188Z,98254.44
2018-03-28T16:38:56.618Z,98254.23
2018-03-28T16:41:23.992Z,98254.52
2018-03-28T16:43:51.410Z,98239.81
2018-03-28T16:46:18.813Z,98236.75
2018-03-28T16:48:46.954Z,98226.02
2018-03-28T16:51:14.383Z,98226.11
2018-03-28T16:53:42.896Z,98226.05
2018-03-28T16:56:10.404Z,98216.13
2018-03-28T16:58:37.796Z,98219.27
2018-03-28T17:01:05.190Z,98208.73
2018-03-28T17:03:32.589Z,98213.36
2018-03-28T17:05:59.985Z,98213.02
2018-03-28T17:08:28.153Z,98207.50
2018-03-28T17:10:55.588Z,98195.60
2018-03-28T17:13:23.525Z,98194.20
2018-03-28T17:15:50.965Z,98192.91
2018-03-28T17:18:18.342Z,98196.42
2018-03-28T17:20:45.749Z,98199.25
2018-03-28T17:23:13.143Z,98204.90
2018-03-28T17:25:40.515Z,98193.41
2018-03-28T17:28:07.935Z,98194.30
2018-03-28T17:30:35.308Z,98185.57
2018-03-28T17:33:02.731Z,98189.52
2018-03-28T17:35:30.680Z,98188.86
2018-03-28T17:37:58.256Z,98192.23
2018-03-28T17:40:25.657Z,98193.31
2018-03-28T17:42:53.091Z,98198.02
2018-03-28T17:45:20.428Z,98201.33
2018-03-28T17:47:47.827Z,98197.61
2018-03-28T17:50:15.216Z,98184.06
2018-03-28T17:52:42.613Z,98193.51
2018-03-28T17:55:10.044Z,98198.94
2018-03-28T17:57:37.436Z,98200.38
2018-03-28T18:00:04.848Z,98198.50
2018-03-28T18:02:32.268Z,98198.05
2018-03-28T18:04:59.659Z,98193.13
2018-03-28T18:07:27.032Z,98190.74
2018-03-28T18:09:54.546Z,98191.98
2018-03-28T18:12:21.922Z,98203.69
2018-03-28T18:14:49.300Z,98210.53
2018-03-28T18:17:16.705Z,98230.22
2018-03-28T18:19:44.128Z,98234.75
2018-03-28T18:22:11.503Z,98255.91
2018-03-28T18:24:38.896Z,98259.44
2018-03-28T18:27:06.294Z,98256.09
2018-03-28T18:29:33.701Z,98273.91
2018-03-28T18:32:01.077Z,98282.84
2018-03-28T18:34:28.483Z,98294.20
2018-03-28T18:36:55.886Z,98292.70
2018-03-28T18:39:23.292Z,98303.66
2018-03-28T18:41:50.684Z,98314.40
2018-03-28T18:44:18.097Z,98321.56
2018-03-28T18:46:45.485Z,98328.55
2018-03-28T18:49:12.915Z,98344.74
2018-03-28T18:51:40.339Z,98350.02
2018-03-28T18:54:07.693Z,98371.42
2018-03-28T18:56:35.076Z,98380.97
2018-03-28T18:59:02.490Z,98400.58
2018-03-28T19:01:29.873Z,98405.48
2018-03-28T19:03:57.257Z,98425.09
2018-03-28T19:06:24.638Z,98451.80
2018-03-28T19:08:52.027Z,98454.92
2018-03-28T19:11:20.924Z,98476.44
2018-03-28T19:13:49.212Z,98481.28
2018-03-28T19:16:17.444Z,98486.21
2018-03-28T19:18:45.835Z,98495.92
2018-03-28T19:21:13.319Z,98503.06
2018-03-28T19:23:40.704Z,98522.89
2018-03-28T19:26:08.079Z,98531.98
2018-03-28T19:28:35.474Z,98542.94
2018-03-28T19:31:03.876Z,98546.91
2018-03-28T19:33:31.293Z,98555.05
2018-03-28T19:35:58.668Z,98565.48
2018-03-28T19:38:26.129Z,98584.91
2018-03-28T19:40:53.580Z,98583.22
2018-03-28T19:43:20.985Z,98574.36
2018-03-28T19:45:48.397Z,98591.29
2018-03-28T19:48:15.765Z,98600.66
2018-03-28T19:50:43.145Z,98606.28
2018-03-28T19:53:10.538Z,98621.58
2018-03-28T19:55:37.925Z,98621.28
2018-03-28T19:58:05.292Z,98636.83
2018-03-28T20:00:32.749Z,98627.06
2018-03-28T20:03:00.078Z,98644.48
2018-03-28T20:05:27.449Z,98654.44
2018-03-28T20:07:54.833Z,98647.73
2018-03-28T20:10:22.217Z,98661.26
2018-03-28T20:12:49.624Z,98657.80
2018-03-28T20:15:17.032Z,98656.56
2018-03-28T20:17:44.429Z,98663.19
2018-03-28T20:20:11.816Z,98664.01
2018-03-28T20:22:39.201Z,98667.45
2018-03-28T20:25:06.613Z,98678.53
2018-03-28T20:27:33.994Z,98681.63
2018-03-28T20:30:01.381Z,98677.38
2018-03-28T20:32:28.756Z,98680.55
2018-03-28T20:34:56.156Z,98665.34
2018-03-28T20:37:23.544Z,98693.86
2018-03-28T20:39:50.945Z,98701.22
2018-03-28T20:42:18.320Z,98701.17
2018-03-28T20:44:45.738Z,98703.89
2018-03-28T20:47:13.109Z,98727.70
2018-03-28T20:49:40.527Z,98721.39
2018-03-28T20:52:08.090Z,98735.90
2018-03-28T20:54:35.492Z,98740.94
2018-03-28T20:57:02.868Z,98747.67
2018-03-28T20:59:30.264Z,98760.98
2018-03-28T21:01:57.652Z,98772.52
2018-03-28T21:04:25.040Z,98774.43
2018-03-28T21:06:52.434Z,98789.82
2018-03-28T21:09:19.810Z,98779.54
2018-03-28T21:11:47.191Z,98795.66
2018-03-28T21:14:14.594Z,98798.80
2018-03-28T21:16:42.004Z,98793.38
2018-03-28T21:19:09.376Z,98810.71
2018-03-28T21:21:36.804Z,98810.83
2018-03-28T21:24:04.192Z,98816.63
2018-03-28T21:26:31.585Z,98819.48
2018-03-28T21:28:58.971Z,98830.60
2018-03-28T21:31:26.392Z,98820.19
2018-03-28T21:33:53.775Z,98839.56
2018-03-28T21:36:21.152Z,98839.20
2018-03-28T21:38:48.555Z,98855.06
2018-03-28T21:41:15.928Z,98857.41
2018-03-28T21:43:43.362Z,98878.36
2018-03-28T21:46:10.732Z,98873.52
2018-03-28T21:48:38.158Z,98880.36
2018-03-28T21:51:05.540Z,98879.25
2018-03-28T21:53:33.197Z,98894.80
2018-03-28T21:56:00.604Z,98889.50
2018-03-28T21:58:27.996Z,98887.05
2018-03-28T22:00:55.378Z,98901.16
2018-03-28T22:03:22.768Z,98903.75
2018-03-28T22:05:50.152Z,98909.13
2018-03-28T22:08:17.534Z,98911.16
2018-03-28T22:10:44.905Z,98915.66
2018-03-28T22:13:12.320Z,98929.36
2018-03-28T22:15:39.696Z,98928.62
2018-03-28T22:18:07.080Z,98940.73
2018-03-28T22:20:34.486Z,98940.80
2018-03-28T22:23:01.845Z,98942.27
2018-03-28T22:25:29.229Z,98944.39
2018-03-28T22:27:56.620Z,98962.25
2018-03-28T22:30:24.012Z,98959.75
2018-03-28T22:32:51.404Z,98966.02
2018-03-28T22:35:18.788Z,98973.62
2018-03-28T22:37:46.183Z,98975.88
2018-03-28T22:40:13.581Z,98971.70
2018-03-28T22:42:40.980Z,98982.17
2018-03-28T22:45:08.367Z,98989.68
2018-03-28T22:47:35.760Z,98991.64
2018-03-28T22:50:03.146Z,98990.99
2018-03-28T22:52:30.536Z,98986.14
2018-03-28T22:54:57.941Z,98990.41
2018-03-28T22:57:25.345Z,98985.25
2018-03-28T22:59:52.732Z,98985.87
2018-03-28T23:02:20.124Z,98993.78
2018-03-28T23:04:47.500Z,98994.08
2018-03-28T23:07:14.953Z,99002.62
2018-03-28T23:09:42.315Z,99004.86
2018-03-28T23:12:09.966Z,99013.59
2018-03-28T23:14:37.340Z,99012.20
2018-03-28T23:17:04.729Z,99014.54
2018-03-28T23:19:32.113Z,99015.14
2018-03-28T23:21:59.521Z,99017.56
2018-03-28T23:24:26.892Z,99027.70
2018-03-28T23:26:54.297Z,99026.08
2018-03-28T23:29:21.672Z,99031.77
2018-03-28T23:31:49.096Z,99032.98
2018-03-28T23:34:16.502Z,99034.12
2018-03-28T23:36:43.925Z,99039.92
2018-03-28T23:39:11.345Z,99042.95
2018-03-28T23:41:38.714Z,99040.94
2018-03-28T23:44:06.121Z,99047.20
2018-03-28T23:46:33.500Z,99051.39
2018-03-28T23:49:00.916Z,99055.95
2018-03-28T23:51:28.381Z,99054.86
2018-03-28T23:53:55.756Z,99048.86
2018-03-28T23:56:23.148Z,99061.13
2018-03-28T23:58:50.540Z,99056.86
